createdAt,value
2023-04-29T00:01:09.796Z,5.85
2023-04-29T00:03:36.387Z,6.93
2023-04-29T00:06:06.421Z,5.90
2023-04-29T00:08:34.252Z,5.50
2023-04-29T00:11:00.715Z,4.72
2023-04-29T00:13:27.139Z,4.38
2023-04-29T00:15:53.645Z,6.03
2023-04-29T00:18:19.967Z,5.07
2023-04-29T00:20:46.397Z,6.00
2023-04-29T00:23:13.132Z,5.28
2023-04-29T00:25:39.486Z,5.13
2023-04-29T00:28:09.105Z,6.38
2023-04-29T00:30:36.520Z,5.68
2023-04-29T00:33:03.114Z,5.15
2023-04-29T00:35:29.661Z,5.05
2023-04-29T00:37:56.032Z,4.35
2023-04-29T00:40:22.425Z,5.10
2023-04-29T00:42:48.823Z,4.35
2023-04-29T00:45:15.197Z,4.00
2023-04-29T00:47:42.111Z,5.88
2023-04-29T00:50:11.944Z,4.20
2023-04-29T00:52:42.537Z,5.40
2023-04-29T00:55:15.853Z,4.35
2023-04-29T00:57:43.156Z,4.05
2023-04-29T01:00:13.831Z,4.25
2023-04-29T01:02:40.790Z,4.97
2023-04-29T01:05:08.878Z,4.28
2023-04-29T01:08:09.426Z,3.72
2023-04-29T01:10:44.405Z,3.90
2023-04-29T01:13:46.207Z,3.92
2023-04-29T01:16:51.757Z,3.88
2023-04-29T01:19:32.499Z,5.05
2023-04-29T01:21:58.878Z,5.93
2023-04-29T01:24:25.574Z,4.78
2023-04-29T01:27:00.074Z,5.55
2023-04-29T01:29:41.051Z,5.53
2023-04-29T01:32:13.835Z,6.47
2023-04-29T01:34:59.490Z,5.55
2023-04-29T01:37:42.565Z,4.57
2023-04-29T01:40:33.844Z,5.50
2023-04-29T01:43:08.065Z,5.30
2023-04-29T01:45:38.207Z,4.60
2023-04-29T01:48:05.496Z,3.95
2023-04-29T01:50:32.684Z,4.90
2023-04-29T01:52:59.257Z,5.50
2023-04-29T01:55:25.906Z,4.85
2023-04-29T01:57:52.517Z,3.92
2023-04-29T02:00:34.408Z,4.30
2023-04-29T02:03:00.901Z,4.25
2023-04-29T02:05:33.851Z,4.22
2023-04-29T02:08:02.748Z,4.97
2023-04-29T02:10:29.288Z,4.70
2023-04-29T02:12:55.935Z,4.88
2023-04-29T02:15:22.266Z,4.65
2023-04-29T02:17:48.602Z,5.55
2023-04-29T02:20:15.243Z,4.60
2023-04-29T02:22:41.584Z,4.47
2023-04-29T02:25:12.879Z,5.70
2023-04-29T02:27:42.154Z,4.70
2023-04-29T02:30:08.830Z,6.28
2023-04-29T02:32:35.593Z,4.35
2023-04-29T02:35:02.508Z,4.55
2023-04-29T02:37:28.986Z,5.28
2023-04-29T02:39:55.488Z,3.55
2023-04-29T02:42:21.996Z,3.50
2023-04-29T02:44:48.340Z,3.63
2023-04-29T02:47:15.531Z,3.72
2023-04-29T02:49:42.157Z,3.45
2023-04-29T02:52:08.499Z,3.85
2023-04-29T02:54:34.835Z,3.92
2023-04-29T02:57:01.316Z,2.63
2023-04-29T02:59:27.731Z,3.22
2023-04-29T03:01:54.525Z,2.78
2023-04-29T03:04:21.008Z,2.55
2023-04-29T03:06:47.919Z,3.15
2023-04-29T03:09:14.488Z,4.90
2023-04-29T03:11:41.375Z,3.25
2023-04-29T03:14:07.772Z,3.88
2023-04-29T03:19:03.163Z,3.13
2023-04-29T03:21:29.745Z,5.30
2023-04-29T03:23:56.502Z,4.30
2023-04-29T03:26:24.294Z,3.75
2023-04-29T03:28:51.567Z,4.00
2023-04-29T03:31:18.688Z,3.42
2023-04-29T03:33:45.074Z,3.20
2023-04-29T03:36:11.422Z,7.57
2023-04-29T03:38:37.784Z,3.22
2023-04-29T03:41:04.657Z,2.88
2023-04-29T03:43:31.161Z,2.95
2023-04-29T03:45:57.589Z,2.83
2023-04-29T03:48:23.966Z,3.97
2023-04-29T03:50:56.579Z,3.95
2023-04-29T03:53:23.182Z,3.08
2023-04-29T03:55:54.911Z,3.03
2023-04-29T03:58:27.460Z,3.95
2023-04-29T04:00:58.682Z,3.83
2023-04-29T04:03:45.586Z,2.35
2023-04-29T04:06:38.736Z,2.83
2023-04-29T04:09:31.803Z,3.38
2023-04-29T04:15:04.304Z,5.63
2023-04-29T04:17:36.598Z,3.17
2023-04-29T04:20:22.185Z,3.28
2023-04-29T04:23:02.088Z,4.32
2023-04-29T04:28:45.552Z,2.72
2023-04-29T04:31:20.907Z,4.68
2023-04-29T04:33:52.993Z,2.97
2023-04-29T04:36:28.412Z,2.58
2023-04-29T04:39:06.159Z,2.20
2023-04-29T04:41:50.543Z,3.13
2023-04-29T04:44:33.870Z,3.10
2023-04-29T04:47:19.225Z,4.63
2023-04-29T04:50:30.333Z,2.78
2023-04-29T04:53:19.730Z,2.30
2023-04-29T04:59:03.650Z,2.80
2023-04-29T05:01:42.420Z,4.00
2023-04-29T05:04:24.352Z,2.33
2023-04-29T05:10:13.309Z,3.55
2023-04-29T05:12:51.984Z,5.22
2023-04-29T05:15:29.410Z,2.55
2023-04-29T05:18:05.980Z,2.83
2023-04-29T05:20:38.731Z,2.17
2023-04-29T05:23:43.756Z,2.22
2023-04-29T05:29:37.192Z,2.50
2023-04-29T05:34:48.053Z,2.30
2023-04-29T05:37:31.937Z,4.40
2023-04-29T05:40:10.755Z,4.18
2023-04-29T05:42:45.337Z,2.20
2023-04-29T05:45:23.309Z,3.42
2023-04-29T05:48:04.567Z,2.15
2023-04-29T05:50:33.646Z,4.22
2023-04-29T05:53:03.583Z,2.28
2023-04-29T05:55:35.725Z,2.13
2023-04-29T05:58:10.744Z,2.25
2023-04-29T06:00:39.731Z,2.25
2023-04-29T06:03:06.480Z,2.60
2023-04-29T06:05:38.668Z,2.92
2023-04-29T06:08:07.885Z,2.55
2023-04-29T06:10:34.441Z,2.78
2023-04-29T06:13:00.772Z,2.65
2023-04-29T06:15:30.388Z,4.35
2023-04-29T06:17:56.764Z,4.53
2023-04-29T06:20:25.595Z,3.92
2023-04-29T06:22:53.404Z,3.67
2023-04-29T06:25:20.013Z,4.35
2023-04-29T06:27:56.403Z,4.45
2023-04-29T06:30:28.993Z,3.88
2023-04-29T06:32:55.671Z,3.80
2023-04-29T06:35:23.024Z,4.13
2023-04-29T06:37:49.634Z,4.25
2023-04-29T06:40:20.718Z,4.80
2023-04-29T06:42:48.687Z,4.50
2023-04-29T06:45:17.528Z,4.22
2023-04-29T06:48:04.607Z,4.45
2023-04-29T06:50:31.730Z,5.03
2023-04-29T06:53:00.723Z,4.53
2023-04-29T06:55:29.963Z,5.18
2023-04-29T06:58:00.131Z,5.65
2023-04-29T07:00:26.825Z,9.38
2023-04-29T07:05:27.468Z,6.82
2023-04-29T07:07:54.031Z,9.75
2023-04-29T07:10:21.942Z,10.80
2023-04-29T07:12:51.437Z,10.80
2023-04-29T07:15:25.280Z,10.70
2023-04-29T07:17:51.969Z,11.98
2023-04-29T07:20:22.481Z,12.20
2023-04-29T07:22:51.664Z,11.25
2023-04-29T07:25:26.665Z,11.73
2023-04-29T07:28:10.999Z,12.77
2023-04-29T07:30:37.761Z,12.55
2023-04-29T07:33:04.554Z,11.05
2023-04-29T07:35:39.015Z,12.15
2023-04-29T07:38:12.900Z,10.93
2023-04-29T07:40:43.968Z,11.23
2023-04-29T07:43:11.520Z,10.20
2023-04-29T07:45:40.769Z,10.20
2023-04-29T07:48:15.986Z,9.85
2023-04-29T07:50:44.327Z,10.95
2023-04-29T07:53:11.086Z,11.10
2023-04-29T07:55:38.704Z,11.57
2023-04-29T07:58:17.276Z,11.57
2023-04-29T08:00:45.699Z,10.35
2023-04-29T08:03:15.565Z,13.27
2023-04-29T08:05:43.441Z,11.80
2023-04-29T08:08:10.394Z,10.60
2023-04-29T08:10:41.024Z,10.93
2023-04-29T08:13:08.285Z,12.45
2023-04-29T08:15:36.386Z,11.20
2023-04-29T08:18:11.375Z,11.77
2023-04-29T08:20:40.724Z,10.93
2023-04-29T08:23:12.607Z,12.48
2023-04-29T08:25:47.041Z,9.52
2023-04-29T08:28:19.812Z,8.35
2023-04-29T08:30:47.545Z,9.13
2023-04-29T08:33:15.131Z,10.00
2023-04-29T08:35:44.553Z,11.43
2023-04-29T08:38:22.778Z,11.90
2023-04-29T08:40:49.508Z,11.43
2023-04-29T08:43:21.752Z,10.68
2023-04-29T08:45:51.495Z,11.73
2023-04-29T08:48:18.730Z,11.48
2023-04-29T08:50:48.823Z,10.13
2023-04-29T08:53:24.918Z,13.05
2023-04-29T08:56:12.493Z,8.63
2023-04-29T08:58:46.134Z,10.98
2023-04-29T09:01:15.475Z,9.35
2023-04-29T09:03:54.795Z,10.13
2023-04-29T09:06:24.580Z,8.35
2023-04-29T09:08:52.254Z,8.25
2023-04-29T09:11:23.955Z,8.68
2023-04-29T09:14:02.492Z,8.23
2023-04-29T09:16:43.752Z,7.38
2023-04-29T09:22:23.977Z,8.10
2023-04-29T09:24:55.688Z,22.50
2023-04-29T09:27:38.753Z,9.23
2023-04-29T09:30:07.203Z,7.28
2023-04-29T09:32:42.139Z,8.60
2023-04-29T09:35:28.296Z,8.40
2023-04-29T09:38:16.903Z,8.40
2023-04-29T09:40:59.566Z,9.43
2023-04-29T09:43:33.255Z,7.57
2023-04-29T09:46:00.057Z,10.75
2023-04-29T09:48:33.683Z,9.98
2023-04-29T09:51:04.474Z,7.68
2023-04-29T09:53:37.818Z,7.53
2023-04-29T09:56:05.272Z,7.93
2023-04-29T09:58:46.221Z,7.00
2023-04-29T10:01:14.359Z,6.97
2023-04-29T10:03:42.861Z,7.80
2023-04-29T10:06:09.639Z,6.43
2023-04-29T10:08:41.652Z,7.70
2023-04-29T10:11:17.916Z,7.38
2023-04-29T10:13:47.111Z,6.75
2023-04-29T10:16:42.002Z,8.05
2023-04-29T10:19:14.386Z,6.13
2023-04-29T10:21:43.538Z,6.85
2023-04-29T10:24:17.158Z,5.93
2023-04-29T10:26:44.357Z,6.03
2023-04-29T10:29:29.110Z,6.00
2023-04-29T10:31:57.302Z,5.28
2023-04-29T10:34:29.793Z,6.20
2023-04-29T10:36:56.591Z,6.65
2023-04-29T10:39:52.532Z,6.55
2023-04-29T10:42:50.836Z,6.47
2023-04-29T10:45:48.008Z,7.13
2023-04-29T10:48:20.126Z,10.18
2023-04-29T10:50:49.980Z,7.72
2023-04-29T10:53:25.137Z,6.70
2023-04-29T10:56:13.016Z,7.10
2023-04-29T10:58:47.202Z,7.10
2023-04-29T11:01:21.922Z,7.82
2023-04-29T11:04:01.631Z,8.10
2023-04-29T11:06:41.953Z,9.98
2023-04-29T11:09:11.066Z,7.95
2023-04-29T11:11:54.059Z,7.63
2023-04-29T11:14:37.766Z,7.47
2023-04-29T11:17:38.614Z,7.03
2023-04-29T11:20:19.681Z,6.18
2023-04-29T11:22:52.193Z,6.50
2023-04-29T11:25:18.898Z,6.30
2023-04-29T11:27:49.648Z,7.15
2023-04-29T11:30:18.459Z,7.57
2023-04-29T11:32:50.563Z,6.13
2023-04-29T11:35:19.838Z,6.93
2023-04-29T11:37:59.272Z,7.45
2023-04-29T11:40:25.830Z,5.80
2023-04-29T11:42:57.847Z,4.95
2023-04-29T11:45:24.738Z,3.95
2023-04-29T11:50:45.028Z,5.15
2023-04-29T11:53:14.956Z,3.90
2023-04-29T11:55:48.454Z,10.65
2023-04-29T11:58:18.476Z,4.13
2023-04-29T12:00:50.195Z,4.57
2023-04-29T12:03:20.272Z,5.22
2023-04-29T12:05:49.340Z,4.55
2023-04-29T12:08:20.381Z,5.32
2023-04-29T12:10:56.961Z,3.90
2023-04-29T12:13:28.319Z,3.83
2023-04-29T12:15:56.199Z,5.03
2023-04-29T12:18:23.461Z,5.43
2023-04-29T12:20:58.471Z,3.33
2023-04-29T12:23:30.333Z,4.05
2023-04-29T12:25:59.587Z,3.22
2023-04-29T12:28:30.640Z,5.70
2023-04-29T12:33:56.811Z,6.07
2023-04-29T12:36:30.663Z,3.38
2023-04-29T12:39:03.346Z,3.95
2023-04-29T12:41:46.894Z,4.28
2023-04-29T12:44:15.052Z,4.13
2023-04-29T12:46:44.945Z,5.60
2023-04-29T12:49:16.054Z,5.22
2023-04-29T12:52:02.389Z,3.80
2023-04-29T12:54:29.870Z,5.28
2023-04-29T12:56:58.936Z,3.63
2023-04-29T12:59:30.182Z,4.45
2023-04-29T13:02:05.689Z,3.78
2023-04-29T13:04:32.588Z,4.10
2023-04-29T13:07:05.701Z,3.83
2023-04-29T13:09:38.381Z,4.05
2023-04-29T13:12:05.533Z,3.58
2023-04-29T13:14:39.353Z,3.70
2023-04-29T13:17:06.489Z,4.78
2023-04-29T13:19:50.441Z,5.03
2023-04-29T13:25:03.032Z,4.25
2023-04-29T13:27:29.654Z,12.38
2023-04-29T13:29:58.889Z,4.20
2023-04-29T13:35:10.062Z,4.30
2023-04-29T13:37:48.127Z,4.60
2023-04-29T13:40:21.200Z,4.93
2023-04-29T13:42:50.480Z,4.15
2023-04-29T13:48:07.551Z,4.80
2023-04-29T13:56:55.051Z,4.75
2023-04-29T14:02:00.355Z,4.75
2023-04-29T14:04:18.722Z,4.95
2023-04-29T14:06:47.748Z,5.47
2023-04-29T14:09:17.240Z,5.18
2023-04-29T14:12:07.543Z,5.80
2023-04-29T14:14:37.884Z,6.13
2023-04-29T14:17:04.744Z,5.10
2023-04-29T14:19:35.438Z,4.50
2023-04-29T14:22:13.363Z,5.85
2023-04-29T14:24:54.751Z,5.40
2023-04-29T14:27:21.688Z,5.13
2023-04-29T14:29:54.865Z,7.40
2023-04-29T14:32:21.627Z,4.45
2023-04-29T14:34:57.630Z,5.50
2023-04-29T14:37:39.728Z,5.00
2023-04-29T14:40:08.060Z,5.75
2023-04-29T14:42:38.562Z,5.00
2023-04-29T14:45:08.903Z,5.05
2023-04-29T14:47:35.535Z,5.75
2023-04-29T14:52:33.295Z,5.82
2023-04-29T14:55:03.162Z,5.70
2023-04-29T14:57:32.564Z,5.22
2023-04-29T15:00:06.136Z,4.75
2023-04-29T15:02:59.215Z,4.93
2023-04-29T15:05:32.872Z,4.72
2023-04-29T15:08:01.745Z,5.53
2023-04-29T15:10:30.394Z,4.13
2023-04-29T15:12:59.264Z,5.32
2023-04-29T15:17:55.047Z,5.22
2023-04-29T15:22:54.798Z,4.38
2023-04-29T15:25:25.414Z,5.00
2023-04-29T15:27:56.492Z,5.65
2023-04-29T15:30:23.110Z,5.63
2023-04-29T15:32:53.262Z,5.47
2023-04-29T15:35:21.154Z,8.18
2023-04-29T15:37:50.911Z,6.22
2023-04-29T15:40:20.914Z,5.55
2023-04-29T15:42:49.661Z,5.18
2023-04-29T15:45:18.973Z,4.57
2023-04-29T15:47:50.658Z,5.25
2023-04-29T15:50:17.309Z,5.30
2023-04-29T15:52:47.084Z,4.88
2023-04-29T15:55:18.773Z,5.93
2023-04-29T15:57:52.271Z,4.70
2023-04-29T16:00:26.853Z,5.32
2023-04-29T16:02:59.137Z,4.38
2023-04-29T16:05:25.852Z,4.65
2023-04-29T16:07:52.554Z,4.72
2023-04-29T16:10:21.919Z,5.72
2023-04-29T16:12:49.101Z,5.38
2023-04-29T16:15:18.760Z,6.25
2023-04-29T16:17:56.101Z,5.45
2023-04-29T16:20:23.687Z,4.72
2023-04-29T16:22:50.586Z,5.30
2023-04-29T16:25:22.958Z,5.03
2023-04-29T16:28:00.492Z,5.28
2023-04-29T16:30:27.916Z,6.03
2023-04-29T16:32:57.874Z,5.05
2023-04-29T16:35:31.011Z,5.53
2023-04-29T16:38:04.342Z,7.15
2023-04-29T16:40:30.840Z,4.88
2023-04-29T16:42:59.528Z,5.38
2023-04-29T16:45:26.434Z,5.20
2023-04-29T16:48:02.602Z,6.05
2023-04-29T16:50:31.314Z,5.68
2023-04-29T16:53:13.124Z,4.85
2023-04-29T16:55:42.787Z,5.38
2023-04-29T16:58:09.352Z,5.20
2023-04-29T17:00:36.289Z,4.47
2023-04-29T17:03:06.314Z,4.57
2023-04-29T17:05:34.250Z,5.22
2023-04-29T17:08:01.116Z,4.90
2023-04-29T17:10:37.054Z,5.93
2023-04-29T17:13:16.369Z,5.22
2023-04-29T17:15:47.866Z,4.82
2023-04-29T17:18:17.297Z,5.45
2023-04-29T17:20:48.844Z,5.55
2023-04-29T17:23:17.411Z,4.45
2023-04-29T17:25:44.087Z,4.60
2023-04-29T17:28:12.324Z,4.57
2023-04-29T17:30:51.042Z,4.20
2023-04-29T17:33:18.749Z,4.55
2023-04-29T17:35:54.795Z,6.20
2023-04-29T17:38:24.798Z,6.20
2023-04-29T17:40:56.216Z,4.72
2023-04-29T17:43:25.108Z,4.35
2023-04-29T17:45:55.389Z,5.35
2023-04-29T17:48:22.547Z,5.03
2023-04-29T17:50:49.162Z,4.07
2023-04-29T17:53:18.272Z,4.57
2023-04-29T17:55:47.285Z,4.22
2023-04-29T17:58:16.429Z,5.47
2023-04-29T18:03:17.336Z,5.03
2023-04-29T18:05:46.416Z,5.05
2023-04-29T18:08:13.111Z,6.63
2023-04-29T18:10:45.630Z,8.20
2023-04-29T18:13:14.185Z,9.90
2023-04-29T18:15:47.685Z,8.75
2023-04-29T18:18:16.597Z,7.20
2023-04-29T18:20:43.718Z,6.70
2023-04-29T18:23:16.682Z,7.68
2023-04-29T18:25:43.524Z,4.13
2023-04-29T18:28:23.446Z,3.15
2023-04-29T18:30:53.597Z,3.53
2023-04-29T18:33:20.397Z,3.42
2023-04-29T18:35:49.405Z,2.95
2023-04-29T18:38:17.485Z,2.78
2023-04-29T18:40:44.791Z,2.55
2023-04-29T18:43:13.809Z,2.85
2023-04-29T18:45:40.613Z,2.40
2023-04-29T18:48:08.600Z,3.03
2023-04-29T18:50:38.227Z,2.80
2023-04-29T18:53:07.760Z,3.70
2023-04-29T18:55:44.593Z,2.08
2023-04-29T18:58:13.325Z,2.85
2023-04-29T19:00:40.729Z,2.70
2023-04-29T19:03:16.485Z,2.25
2023-04-29T19:05:48.125Z,2.72
2023-04-29T19:08:17.706Z,2.33
2023-04-29T19:10:50.682Z,2.80
2023-04-29T19:13:17.223Z,2.47
2023-04-29T19:15:51.097Z,2.65
2023-04-29T19:18:20.146Z,2.67
2023-04-29T19:20:49.445Z,3.42
2023-04-29T19:23:23.878Z,4.97
2023-04-29T19:25:53.043Z,2.58
2023-04-29T19:30:47.572Z,3.38
2023-04-29T19:33:14.245Z,3.20
2023-04-29T19:35:40.811Z,3.17
2023-04-29T19:38:07.330Z,3.50
2023-04-29T19:40:33.849Z,3.67
2023-04-29T19:43:00.502Z,4.18
2023-04-29T19:45:28.433Z,3.75
2023-04-29T19:48:02.092Z,3.42
2023-04-29T19:50:29.514Z,3.38
2023-04-29T19:52:56.312Z,4.63
2023-04-29T19:55:25.750Z,5.13
2023-04-29T19:57:55.403Z,3.90
2023-04-29T20:00:22.293Z,4.93
2023-04-29T20:02:51.432Z,5.40
2023-04-29T20:07:44.726Z,4.95
2023-04-29T20:10:12.000Z,4.97
2023-04-29T20:12:38.659Z,4.53
2023-04-29T20:15:08.711Z,4.72
2023-04-29T20:17:35.405Z,5.47
2023-04-29T20:20:02.415Z,5.10
2023-04-29T20:22:30.697Z,5.70
2023-04-29T20:24:57.173Z,8.75
2023-04-29T20:27:23.876Z,6.20
2023-04-29T20:29:50.370Z,6.85
2023-04-29T20:32:19.453Z,7.13
2023-04-29T20:34:51.096Z,6.47
2023-04-29T20:37:19.678Z,7.47
2023-04-29T20:39:47.002Z,5.93
2023-04-29T20:42:13.575Z,6.22
2023-04-29T20:44:43.440Z,6.47
2023-04-29T20:47:10.294Z,8.45
2023-04-29T20:49:39.408Z,7.20
2023-04-29T20:52:08.691Z,8.05
2023-04-29T20:54:37.531Z,8.48
2023-04-29T20:57:05.509Z,7.70
2023-04-29T20:59:33.316Z,7.30
2023-04-29T21:01:59.970Z,7.68
2023-04-29T21:04:26.686Z,9.25
2023-04-29T21:06:53.316Z,8.15
2023-04-29T21:09:22.627Z,7.22
2023-04-29T21:11:52.062Z,8.48
2023-04-29T21:14:19.000Z,8.70
2023-04-29T21:16:45.805Z,8.15
2023-04-29T21:19:12.254Z,7.65
2023-04-29T21:21:38.643Z,8.32
2023-04-29T21:24:05.624Z,8.15
2023-04-29T21:26:35.074Z,7.55
2023-04-29T21:29:02.026Z,8.65
2023-04-29T21:31:32.747Z,9.07
2023-04-29T21:34:01.701Z,8.13
2023-04-29T21:36:39.688Z,8.43
2023-04-29T21:39:12.070Z,8.25
2023-04-29T21:41:39.241Z,9.00
2023-04-29T21:44:09.374Z,7.85
2023-04-29T21:46:38.590Z,7.63
2023-04-29T21:49:05.328Z,9.13
2023-04-29T21:51:34.314Z,8.82
2023-04-29T21:54:08.371Z,9.05
2023-04-29T21:56:38.056Z,10.52
2023-04-29T21:59:05.047Z,8.52
2023-04-29T22:01:49.608Z,9.85
2023-04-29T22:04:17.198Z,8.77
2023-04-29T22:06:46.130Z,8.25
2023-04-29T22:09:12.888Z,8.45
2023-04-29T22:11:39.843Z,8.60
2023-04-29T22:14:06.569Z,7.97
2023-04-29T22:16:35.939Z,9.70
2023-04-29T22:19:03.111Z,9.35
2023-04-29T22:21:35.981Z,8.80
2023-04-29T22:24:06.130Z,9.10
2023-04-29T22:26:40.564Z,7.38
2023-04-29T22:29:07.083Z,8.48
2023-04-29T22:31:35.880Z,9.13
2023-04-29T22:34:02.446Z,7.97
2023-04-29T22:36:44.536Z,8.95
2023-04-29T22:41:37.585Z,7.85
2023-04-29T22:44:06.302Z,8.13
2023-04-29T22:46:37.111Z,8.85
2023-04-29T22:49:03.827Z,7.55
2023-04-29T22:51:30.396Z,8.40
2023-04-29T22:53:57.026Z,7.72
2023-04-29T22:56:24.514Z,8.05
2023-04-29T22:58:50.954Z,7.72
2023-04-29T23:01:17.566Z,8.32
2023-04-29T23:03:44.254Z,8.07
2023-04-29T23:06:11.172Z,8.38
2023-04-29T23:08:45.161Z,8.63
2023-04-29T23:11:12.117Z,8.98
2023-04-29T23:13:39.103Z,9.63
2023-04-29T23:16:07.116Z,8.30
2023-04-29T23:18:35.154Z,9.70
2023-04-29T23:21:01.803Z,8.18
2023-04-29T23:23:28.456Z,8.68
2023-04-29T23:26:00.393Z,8.95
2023-04-29T23:28:27.211Z,8.88
2023-04-29T23:33:22.638Z,8.35
2023-04-29T23:35:53.521Z,8.82
2023-04-29T23:38:21.281Z,7.80
2023-04-29T23:40:48.148Z,8.25
2023-04-29T23:43:17.321Z,10.25
2023-04-29T23:45:45.856Z,8.38
2023-04-29T23:48:12.729Z,9.10
2023-04-29T23:50:39.410Z,8.40
2023-04-29T23:53:05.831Z,10.63
2023-04-29T23:55:33.057Z,8.88
2023-04-29T23:57:59.603Z,9.10
